Latest Weather Observations for Roxby Downs

IDS60801

Issued at 7:31 am CST Thursday 29 September 2016 (issued every 30 minutes, with the page automatically refreshed every 10 minutes)

About weather observations | Map of weather stations | Latest weather observations for SA | Other Formats
Station Details ID: 016096 Name: OLYMPIC DAM AERODROME Lat: -30.48 Lon: 136.88 Height: 98.5 m
Data from the previous 72 hours. | See also: Recent months at Roxby Downs
Date/Time
CST
Temp
°C
App
Temp
°C
Dew
Point
°C
Rel
Hum
%
Delta-T
°C
Wind Press
QNH
hPa
Press
MSL
hPa
Rain since
9am
mm
Dir  Spd
km/h
Gust
km/h
Spd
kts
Gust
kts
29/07:30am 10.0 -0.1 1.6 56 3.5 W 44 61 24 33 1003.7 1003.5 0.0
29/07:00am 9.6 0.4 1.3 56 3.5 WNW 39 59 21 32 1003.5 1003.3 0.0
29/06:30am 9.1 1.1 1.5 59 3.2 W 33 59 18 32 1003.5 1003.3 0.0
29/06:01am 9.0 0.2 1.4 59 3.1 WNW 37 56 20 30 1002.9 1002.7 0.0
29/06:00am 9.0 0.2 1.4 59 3.2 WNW 37 52 20 28 1002.9 1002.7 0.0
29/05:30am 9.0 0.5 1.2 58 3.2 WNW 35 54 19 29 1002.6 1002.4 0.0
29/05:17am 9.2 1.1 1.1 57 3.3 WNW 33 52 18 28 1002.4 1002.2 0.0
29/05:00am 9.2 0.7 1.1 57 3.3 WNW 35 50 19 27 1002.4 1002.2 0.0
29/04:33am 8.9 0.4 1.1 58 3.2 WNW 35 54 19 29 1002.3 1002.1 0.0
29/04:30am 9.0 0.2 1.2 58 3.2 WNW 37 54 20 29 1002.4 1002.2 0.0
29/04:02am 9.1 0.2 0.8 56 3.4 WNW 37 59 20 32 1002.3 1002.1 0.0
29/04:00am 9.1 0.2 1.0 57 3.3 WNW 37 54 20 29 1002.3 1002.1 0.0
29/03:30am 9.1 -0.1 1.3 58 3.2 WNW 39 57 21 31 1002.4 1002.2 0.0
29/03:09am 9.1 0.7 1.3 58 3.2 WNW 35 57 19 31 1002.4 1002.2 0.0
29/03:00am 9.2 1.1 1.1 57 3.4 WNW 33 48 18 26 1002.4 1002.2 0.0
29/02:30am 9.4 1.3 1.3 57 3.4 WNW 33 54 18 29 1002.6 1002.4 0.0
29/02:01am 9.6 1.1 1.0 55 3.5 WNW 35 56 19 30 1003.0 1002.8 0.0
29/02:00am 9.7 1.2 1.1 55 3.6 WNW 35 50 19 27 1003.0 1002.8 0.0
29/01:32am 9.7 1.6 1.1 55 3.6 W 33 52 18 28 1003.5 1003.3 0.0
29/01:30am 9.7 1.8 1.1 55 3.6 W 32 48 17 26 1003.5 1003.3 0.0
29/01:03am 9.8 1.0 1.2 55 3.6 W 37 56 20 30 1003.7 1003.5 0.0
29/01:00am 9.9 0.7 1.0 54 3.7 W 39 56 21 30 1003.7 1003.5 0.0
29/12:30am 10.4 -0.2 1.0 52 3.9 W 46 67 25 36 1003.8 1003.6 0.0
29/12:02am 10.6 2.1 0.6 50 4.1 W 35 57 19 31 1003.8 1003.6 0.0
29/12:00am 10.6 2.1 0.6 50 4.1 W 35 52 19 28 1003.8 1003.6 0.0
 
Date/Time
CST
Temp
°C
App
Temp
°C
Dew
Point
°C
Rel
Hum
%
Delta-T
°C
Wind Press
QNH
hPa
Press
MSL
hPa
Rain since
9am
mm
Dir  Spd
km/h
Gust
km/h
Spd
kts
Gust
kts
28/11:43pm 10.8 1.9 0.8 50 4.1 WNW 37 56 20 30 1003.6 1003.4 0.0
28/11:30pm 10.6 2.8 1.7 54 3.8 WNW 32 44 17 24 1003.7 1003.5 0.0
28/11:00pm 10.6 2.3 1.9 55 3.7 W 35 56 19 30 1003.7 1003.5 0.0
28/10:30pm 10.4 3.1 2.7 59 3.3 W 30 48 16 26 1003.9 1003.7 0.0
28/10:07pm 10.5 2.6 2.1 56 3.6 W 33 52 18 28 1003.9 1003.7 0.0
28/10:00pm 10.7 2.0 1.8 54 3.8 W 37 54 20 29 1004.1 1003.9 0.0
28/09:30pm 11.0 2.7 2.3 55 3.8 W 35 56 19 30 1004.1 1003.9 0.0
28/09:00pm 11.5 2.5 2.5 54 3.9 W 39 65 21 35 1004.1 1003.9 0.0
28/08:30pm 12.3 1.2 2.7 52 4.2 WSW 50 72 27 39 1004.2 1004.0 0.0
28/08:16pm 13.9 3.8 0.5 40 5.7 WSW 43 70 23 38 1003.4 1003.2 0.0
28/08:05pm 14.2 6.0 0.1 38 6.0 WSW 33 52 18 28 1002.9 1002.7 0.0
28/08:00pm 14.2 5.6 0.1 38 6.0 WSW 35 48 19 26 1002.7 1002.5 0.0
28/07:30pm 14.4 4.3 1.3 41 5.7 WSW 44 65 24 35 1001.9 1001.7 0.0
28/07:00pm 17.3 6.1 -3.4 24 8.4 WSW 46 72 25 39 1000.2 1000.0 0.0
28/06:30pm 18.5 6.3 -5.5 19 9.5 W 50 76 27 41 999.7 999.5 0.0
28/06:00pm 19.5 6.7 -4.7 19 9.8 W 54 74 29 40 999.0 998.8 0.0
28/05:30pm 20.6 7.9 -3.8 19 10.2 W 54 78 29 42 998.1 997.9 0.0
28/05:00pm 22.5 9.7 -0.9 21 10.4 W 56 78 30 42 997.1 996.9 0.0
28/04:32pm 24.8 13.8 1.0 21 11.2 W 48 69 26 37 995.9 995.6 0.0
28/04:30pm 24.8 13.5 1.0 21 11.3 W 50 65 27 35 995.8 995.5 0.0
28/04:00pm 26.4 14.5 2.3 21 11.7 WNW 54 85 29 46 994.7 994.5 0.0
28/03:34pm 27.9 16.5 2.9 20 12.4 W 52 74 28 40 994.4 994.2 0.0
28/03:30pm 28.2 16.3 2.4 19 12.8 W 54 78 29 42 994.3 994.1 0.0
28/03:15pm 29.9 18.5 0.5 15 14.2 WNW 50 69 27 37 993.6 993.4 0.0
28/03:13pm 30.0 18.6 0.6 15 14.2 WNW 50 69 27 37 993.6 993.4 0.0
28/03:00pm 31.1 18.4 0.5 14 15.0 WNW 57 82 31 44 993.1 992.9 0.0
28/02:51pm 31.7 18.5 -5.0 9 16.4 NW 56 93 30 50 992.8 992.6 0.0
28/02:30pm 32.2 20.5 -4.6 9 16.7 NW 48 76 26 41 993.1 992.9 0.0
28/02:05pm 30.9 21.4 -0.7 13 15.1 NW 39 70 21 38 993.7 993.5 0.0
28/02:00pm 30.5 21.3 1.0 15 14.4 NW 39 56 21 30 993.9 993.7 0.0
28/01:47pm 30.7 23.1 3.7 18 13.9 NW 33 59 18 32 994.5 994.3 0.0
28/01:46pm 30.8 23.2 3.8 18 13.9 NW 33 48 18 26 994.5 994.3 0.0
28/01:43pm 29.2 23.0 7.7 26 11.7 NNW 30 48 16 26 994.6 994.4 0.0
28/01:30pm 28.4 23.0 12.3 37 9.5 NNW 32 44 17 24 995.1 994.8 0.0
28/01:00pm 28.9 22.6 13.6 39 9.2 N 39 59 21 32 996.1 995.9 0.0
28/12:45pm 28.4 23.0 13.9 41 8.7 N 35 54 19 29 996.7 996.5 0.0
28/12:30pm 27.9 22.8 15.9 48 7.5 N 37 54 20 29 997.4 997.2 0.0
28/12:10pm 26.4 20.8 16.6 55 6.1 N 41 59 22 32 998.3 998.1 0.0
28/12:00pm 26.1 20.2 16.6 55 5.9 N 43 59 23 32 998.6 998.4 0.0
28/11:30am 24.4 18.6 16.9 63 4.7 N 43 61 23 33 999.2 999.0 0.0
28/11:29am 24.1 18.3 16.9 64 4.5 N 43 61 23 33 999.2 999.0 0.0
28/11:00am 22.9 17.6 16.4 67 4.0 N 39 56 21 30 999.9 999.7 0.0
28/10:30am 22.9 16.4 16.7 68 3.8 N 46 69 25 37 1000.2 1000.0 0.0
28/10:10am 22.1 15.6 16.6 71 3.4 N 46 65 25 35 1000.9 1000.7 0.0
28/10:00am 21.5 14.7 16.7 74 2.9 N 48 63 26 34 1001.2 1001.0 0.0
28/09:33am 20.6 15.3 16.4 77 2.5 N 39 57 21 31 1001.7 1001.5 0.0
28/09:30am 20.7 15.1 16.5 77 2.6 N 41 57 22 31 1001.7 1001.5 0.0
28/09:24am 20.3 15.0 16.3 78 2.4 N 39 57 21 31 1001.8 1001.6 0.0
28/09:00am 20.3 14.6 16.3 78 2.4 N 41 57 22 31 1001.7 1001.5 0.8
28/08:30am 20.8 14.8 14.5 67 3.7 N 39 57 21 31 1002.3 1002.1 0.0
28/08:11am 20.7 15.7 13.9 65 3.9 NNE 33 56 18 30 1001.9 1001.7 0.0
28/08:00am 21.0 16.4 13.4 62 4.4 NNE 30 46 16 25 1002.6 1002.4 0.0
28/07:58am 20.7 16.1 13.4 63 4.2 NNE 30 46 16 25 1002.6 1002.4 0.0
28/07:30am 18.6 14.7 9.4 55 4.9 NNE 20 28 11 15 1002.8 1002.6 0.0
28/07:00am 16.7 12.0 6.2 50 5.1 NE 20 30 11 16 1003.5 1003.3 0.0
28/06:30am 15.2 10.0 2.4 42 5.8 NE 19 26 10 14 1004.2 1004.0 0.0
28/06:00am 15.1 9.6 0.9 38 6.2 NE 19 24 10 13 1004.4 1004.2 0.0
28/05:30am 14.8 9.5 -0.5 35 6.4 ENE 17 28 9 15 1004.9 1004.8 0.0
28/05:00am 14.2 10.0 -1.0 35 6.3 ENE 11 17 6 9 1005.6 1005.4 0.0
28/04:30am 14.3 9.0 -0.9 35 6.3 ENE 17 22 9 12 1006.0 1005.8 0.0
28/04:00am 13.8 9.3 -0.6 37 6.0 NE 13 17 7 9 1006.8 1006.6 0.0
28/03:30am 14.2 9.3 -0.6 36 6.2 ENE 15 20 8 11 1007.1 1006.9 0.0
28/03:00am 14.0 8.7 -0.4 37 6.0 E 17 22 9 12 1007.3 1007.1 0.0
28/02:30am 13.2 9.5 -0.1 40 5.5 ENE 9 11 5 6 1008.4 1008.2 0.0
28/02:00am 13.9 9.4 -0.2 38 5.9 ENE 13 17 7 9 1008.9 1008.7 0.0
28/01:30am 14.1 9.6 0.0 38 5.9 ENE 13 17 7 9 1009.6 1009.4 0.0
28/01:00am 13.4 9.4 0.4 41 5.5 ENE 11 13 6 7 1009.9 1009.7 0.0
28/12:30am 12.9 9.3 0.3 42 5.3 NE 9 11 5 6 1010.5 1010.3 0.0
28/12:00am 14.4 10.0 0.3 38 6.0 ENE 13 15 7 8 1011.0 1010.8 0.0
 
Date/Time
CST
Temp
°C
App
Temp
°C
Dew
Point
°C
Rel
Hum
%
Delta-T
°C
Wind Press
QNH
hPa
Press
MSL
hPa
Rain since
9am
mm
Dir  Spd
km/h
Gust
km/h
Spd
kts
Gust
kts
27/11:30pm 14.6 10.5 -0.3 36 6.3 ENE 11 15 6 8 1011.6 1011.4 0.0
27/11:00pm 14.7 10.5 -1.0 34 6.5 ENE 11 13 6 7 1011.9 1011.7 0.0
27/10:30pm 14.9 10.2 -2.1 31 6.9 E 13 13 7 7 1012.3 1012.1 0.0
27/10:00pm 15.5 11.2 -2.0 30 7.1 E 11 13 6 7 1012.5 1012.3 0.0
27/09:30pm 14.9 10.2 -1.6 32 6.8 E 13 15 7 8 1012.7 1012.5 0.0
27/09:00pm 12.5 9.4 1.2 46 4.8 SE 7 9 4 5 1012.8 1012.6 0.0
27/08:30pm 12.4 9.0 2.0 49 4.5 ESE 9 9 5 5 1012.9 1012.7 0.0
27/08:00pm 12.8 9.8 1.8 47 4.8 SE 7 7 4 4 1012.8 1012.6 0.0
27/07:30pm 14.4 11.3 1.3 41 5.7 SSE 7 9 4 5 1012.7 1012.5 0.0
27/07:00pm 16.2 12.9 -0.1 33 7.0 SSE 7 7 4 4 1012.7 1012.5 0.0
27/06:30pm 19.4 16.1 -0.1 27 8.6 S 7 9 4 5 1012.7 1012.5 0.0
27/06:00pm 21.5 17.9 -3.8 18 10.6 S 6 9 3 5 1012.6 1012.4 0.0
27/05:30pm 22.6 19.3 -4.5 16 11.3 SSW 4 9 2 5 1012.7 1012.5 0.0
27/05:00pm 22.9 19.0 -5.1 15 11.5 W 7 15 4 8 1012.6 1012.4 0.0
27/04:30pm 23.3 19.4 -4.8 15 11.7 WSW 7 15 4 8 1012.8 1012.6 0.0
27/04:00pm 22.5 18.1 -5.4 15 11.4 SW 9 13 5 7 1013.1 1012.9 0.0
27/03:30pm 22.8 18.5 -5.2 15 11.5 NW 9 17 5 9 1013.2 1013.1 0.0
27/03:00pm 22.8 19.1 -4.3 16 11.3 WNW 6 13 3 7 1013.5 1013.4 0.0
27/02:30pm 21.9 17.8 -2.7 19 10.5 SSW 9 20 5 11 1014.0 1013.9 0.0
27/02:00pm 22.0 17.9 -2.7 19 10.6 WNW 9 15 5 8 1014.4 1014.3 0.0
27/01:30pm 21.2 16.7 -3.3 19 10.3 SW 11 19 6 10 1014.9 1014.8 0.0
27/01:00pm 21.5 16.9 -3.8 18 10.6 SW 11 20 6 11 1015.4 1015.3 0.0
27/12:30pm 20.7 15.9 -2.4 21 9.8 SW 13 20 7 11 1016.0 1015.8 0.0
27/12:00pm 19.7 15.4 -1.4 24 9.1 SSW 11 19 6 10 1016.4 1016.2 0.0
27/11:30am 19.1 15.4 0.2 28 8.3 SSW 9 15 5 8 1016.8 1016.6 0.0
27/11:00am 18.2 14.9 0.4 30 7.8 SSE 7 17 4 9 1017.2 1017.0 0.0
27/10:30am 17.6 14.1 1.2 33 7.3 S 9 17 5 9 1017.5 1017.3 0.0
27/10:00am 16.5 13.0 1.4 36 6.7 S 9 15 5 8 1017.9 1017.7 0.0
27/09:30am 16.1 12.9 2.9 41 6.0 SSE 9 17 5 9 1018.1 1017.9 0.0
27/09:00am 15.0 11.1 3.5 46 5.2 SE 13 17 7 9 1018.1 1017.9 0.0
27/08:30am 14.0 9.7 3.5 49 4.8 SE 15 19 8 10 1018.1 1017.9 0.0
27/08:00am 13.4 9.2 3.8 52 4.4 SE 15 20 8 11 1018.0 1017.8 0.0
27/07:30am 11.7 8.3 4.2 60 3.4 SSE 11 15 6 8 1018.0 1017.8 0.0
27/07:00am 9.0 7.7 4.0 71 2.2 CALM 0 0 0 0 1017.7 1017.5 0.0
27/06:30am 6.4 4.8 2.3 75 1.7 CALM 0 0 0 0 1017.5 1017.3 0.0
27/06:00am 7.2 4.4 2.1 70 2.1 S 6 6 3 3 1017.2 1017.0 0.0
27/05:30am 8.7 5.5 3.1 68 2.4 SSW 9 11 5 6 1016.7 1016.5 0.0
27/05:00am 9.0 5.8 3.0 66 2.6 S 9 11 5 6 1016.3 1016.1 0.0
27/04:30am 9.7 6.5 2.8 62 3.0 S 9 11 5 6 1016.2 1016.0 0.0
27/04:00am 10.7 7.1 2.8 58 3.4 S 11 13 6 7 1016.0 1015.8 0.0
27/03:30am 11.6 6.9 2.9 55 3.8 S 17 20 9 11 1016.1 1015.9 0.0
27/03:00am 12.1 7.7 2.6 52 4.2 S 15 19 8 10 1016.1 1015.9 0.0
27/02:30am 12.7 7.6 2.8 51 4.4 S 19 26 10 14 1016.0 1015.8 0.0
27/02:00am 13.0 8.3 3.4 52 4.3 SSW 17 24 9 13 1016.0 1015.8 0.0
27/01:30am 13.3 9.0 3.4 51 4.4 SSW 15 19 8 10 1016.2 1016.0 0.0
27/01:00am 13.9 9.9 3.1 48 4.9 SSW 13 20 7 11 1016.2 1016.0 0.0
27/12:30am 14.3 10.3 2.9 46 5.1 SW 13 17 7 9 1015.8 1015.7 0.0
27/12:00am 14.6 10.6 2.8 45 5.3 SW 13 17 7 9 1016.0 1015.8 0.0
 
Date/Time
CST
Temp
°C
App
Temp
°C
Dew
Point
°C
Rel
Hum
%
Delta-T
°C
Wind Press
QNH
hPa
Press
MSL
hPa
Rain since
9am
mm
Dir  Spd
km/h
Gust
km/h
Spd
kts
Gust
kts
26/11:30pm 15.2 11.2 2.7 43 5.6 SSW 13 17 7 9 1015.7 1015.6 0.0
26/11:00pm 16.2 12.2 2.6 40 6.2 SSW 13 17 7 9 1015.6 1015.5 0.0
26/10:30pm 16.9 13.2 2.5 38 6.5 SSW 11 15 6 8 1016.1 1015.9 0.0
26/10:00pm 17.5 14.0 3.4 39 6.6 SSW 11 13 6 7 1015.6 1015.5 0.0
26/09:30pm 18.6 14.4 3.6 37 7.1 SSW 15 20 8 11 1015.2 1015.1 0.0
26/09:00pm 19.6 15.1 4.1 36 7.4 SSW 17 24 9 13 1014.8 1014.7 0.0
26/08:30pm 20.1 15.7 4.6 36 7.5 SSW 17 26 9 14 1014.5 1014.4 0.0
26/08:00pm 20.8 16.3 4.4 34 8.0 SSW 17 20 9 11 1013.9 1013.8 0.0
26/07:30pm 21.8 16.3 3.9 31 8.7 SSW 22 30 12 16 1013.3 1013.2 0.0
26/07:00pm 22.4 18.2 4.0 30 9.0 SW 15 26 8 14 1012.7 1012.5 0.0
26/06:30pm 23.6 19.3 3.5 27 9.8 WSW 15 20 8 11 1012.2 1012.0 0.0
26/06:00pm 25.0 19.8 3.6 25 10.6 WSW 20 28 11 15 1012.0 1011.8 0.0
26/05:30pm 25.9 20.0 3.8 24 11.0 WSW 24 33 13 18 1011.6 1011.4 0.0
26/05:00pm 27.0 21.0 3.5 22 11.7 W 24 37 13 20 1011.1 1010.9 0.0
26/04:30pm 27.0 20.9 2.8 21 12.0 WNW 24 35 13 19 1010.9 1010.7 0.0
26/04:00pm 28.0 21.2 3.0 20 12.5 WNW 28 39 15 21 1010.9 1010.7 0.0
26/03:30pm 26.3 19.8 2.9 22 11.5 NW 26 41 14 22 1010.9 1010.7 0.0
26/03:00pm 27.0 20.9 2.8 21 12.0 WNW 24 35 13 19 1011.3 1011.1 0.0
26/02:30pm 26.6 20.6 3.2 22 11.6 WNW 24 46 13 25 1011.6 1011.4 0.0
26/02:00pm 26.9 20.0 2.7 21 11.9 NW 28 41 15 22 1011.8 1011.6 0.0
26/01:30pm 26.0 19.5 2.7 22 11.4 NW 26 43 14 23 1012.4 1012.2 0.0
26/01:00pm 25.6 19.0 2.3 22 11.3 NNW 26 37 14 20 1012.9 1012.7 0.0
26/12:30pm 25.6 19.0 2.3 22 11.3 NNW 26 41 14 22 1013.4 1013.3 0.0
26/12:00pm 24.6 18.0 2.1 23 10.8 NNW 26 41 14 22 1013.9 1013.8 0.0
26/11:30am 23.7 16.7 2.0 24 10.3 NNW 28 39 15 21 1014.4 1014.3 0.0
26/11:00am 23.2 17.0 2.1 25 10.0 NNW 24 35 13 19 1014.6 1014.5 0.0
26/10:30am 22.2 15.1 1.3 25 9.7 N 28 37 15 20 1014.8 1014.7 0.0
26/10:00am 21.7 15.4 1.4 26 9.4 N 24 35 13 19 1015.1 1015.0 0.0
26/09:30am 20.9 14.2 1.2 27 9.0 N 26 33 14 18 1015.2 1015.1 0.0
26/09:00am 19.0 12.2 1.1 30 8.0 N 26 35 14 19 1015.2 1015.1 0.0
26/08:30am 17.5 11.9 1.5 34 7.2 N 20 30 11 16 1015.1 1015.0 0.0
26/08:00am 16.1 10.7 1.0 36 6.6 N 19 26 10 14 1014.9 1014.8 0.0

Other Formats:

Comma delimited format used in spreadsheet applications
http://www.bom.gov.au/fwo/IDS60801/IDS60801.95658.axf

JavaScript Object Notation format (JSON) in row-major order
http://www.bom.gov.au/fwo/IDS60801/IDS60801.95658.json